Columbus, Kansas
Current Conditions -  °F | °C
As of 12:53 PM on Friday 24 Oct 2014 (Local Time) from KJLN Reporting Station
Clear Clear  
Wind Chill: 72°   Ceiling: Unl
Heat Index: 72°   Visibility: 10mi
Dew Point: 59°   Wind: 13mph
Humidity: 64%   Direction: 230°SW
Pressure: 30.1"   Gusts: NA
Location:  37.17°N, 94.84°W
Report Text: KJLN 241753Z 23011KT 10SM CLR 22/15 A3010 RMK AO2 SLP187 T02220150 10222 20106 58008
Loading
Personal Weather Stations






























Interactive Weather Map
Tropical Storm Tracking
New forecast layout! Learn more

10-Day Weather Forecast

Advertisements
Track Severe Weather on mobile